createdAt,value
2023-08-19T00:22:10.241Z,23.07
2023-08-19T00:50:58.175Z,22.61
2023-08-19T01:19:44.982Z,22.1
2023-08-19T01:48:36.845Z,22.06
2023-08-19T02:17:23.285Z,21.34
2023-08-19T02:45:59.409Z,21.1
2023-08-19T03:14:45.422Z,20.84
2023-08-19T03:43:32.358Z,20.59
2023-08-19T04:12:17.623Z,20.43
2023-08-19T04:40:47.815Z,20.43
2023-08-19T05:09:35.871Z,20.95
2023-08-19T05:38:32.081Z,22.14
2023-08-19T06:07:02.927Z,23.33
2023-08-19T06:36:02.597Z,24.52
2023-08-19T07:05:00.147Z,26.44
2023-08-19T07:33:32.557Z,26.29
2023-08-19T08:02:16.246Z,27.36
2023-08-19T08:30:43.528Z,27.57
2023-08-19T08:59:16.330Z,28.91
2023-08-19T09:27:52.482Z,30.2
2023-08-19T09:56:23.090Z,30.62
2023-08-19T10:25:08.288Z,31
2023-08-19T10:53:57.649Z,32.01
2023-08-19T11:22:41.924Z,32.44
2023-08-19T11:51:07.962Z,32.95
2023-08-19T12:19:44.972Z,32.78
2023-08-19T12:48:31.882Z,33.14
2023-08-19T14:43:02.488Z,32.55
2023-08-19T15:11:37.375Z,32.47
2023-08-19T15:40:21.230Z,31.73
2023-08-19T16:08:52.851Z,31.01
2023-08-19T16:37:37.589Z,30.71
2023-08-19T17:06:11.957Z,30.09
2023-08-19T17:34:49.677Z,29.38
2023-08-19T18:03:31.779Z,28.98
2023-08-19T18:31:59.760Z,28.52
2023-08-19T19:00:40.196Z,28.13
2023-08-19T19:29:11.296Z,27.59
2023-08-19T19:57:48.086Z,26.8
2023-08-19T20:26:49.587Z,26.37
2023-08-19T20:55:31.384Z,26.13
2023-08-19T21:23:42.069Z,25.42
2023-08-19T21:52:23.169Z,24.92
2023-08-19T22:21:01.257Z,24.8
2023-08-19T22:49:34.820Z,24.48
2023-08-19T23:18:15.300Z,24.32
2023-08-19T23:47:07.391Z,24.55
